Time;durP1;ratioP1;P1;durP2;ratioP2;P2;SDS_P1;SDS_P2;PMS_P1;PMS_P2;Temp;Humidity;BMP_temperature;BMP_pressure;BME280_temperature;BME280_humidity;BME280_pressure;Samples;Min_cycle;Max_cycle;Signal;HPM_P1;HPM_P2
2022/03/08 00:00:13;;;;;;;12.37;11.47;;;;;;;0.29;49.18;99177.00;4154077;28;20200;-48
2022/03/08 00:02:15;;;;;;;12.93;11.93;;;;;;;0.30;49.11;99171.44;4144189;28;20214;-48
2022/03/08 00:04:17;;;;;;;13.23;12.23;;;;;;;0.28;49.02;99184.22;4123942;28;20621;-48
2022/03/08 00:06:19;;;;;;;12.90;11.80;;;;;;;0.27;48.98;99185.22;4175884;28;20254;-49
2022/03/08 00:08:20;;;;;;;12.50;11.53;;;;;;;0.24;49.05;99185.59;4139883;28;20271;-50
2022/03/08 00:10:22;;;;;;;13.87;12.77;;;;;;;0.34;48.37;99170.09;4139063;28;20224;-49
2022/03/08 00:12:24;;;;;;;12.57;11.47;;;;;;;0.41;48.23;99176.47;4140478;28;20280;-49
2022/03/08 00:14:26;;;;;;;13.77;12.57;;;;;;;0.33;48.28;99179.16;4136523;28;20206;-50
2022/03/08 00:16:28;;;;;;;12.93;12.00;;;;;;;0.40;48.37;99166.72;4169412;28;20254;-50
2022/03/08 00:18:29;;;;;;;13.33;12.27;;;;;;;0.34;48.77;99170.09;4138741;28;20240;-48
2022/03/08 00:20:32;;;;;;;12.67;11.67;;;;;;;0.28;48.51;99176.13;4144436;28;20206;-49
2022/03/08 00:22:35;;;;;;;13.53;12.37;;;;;;;0.33;48.72;99171.09;4146456;28;20209;-51
2022/03/08 00:24:36;;;;;;;12.47;11.53;;;;;;;0.33;48.55;99173.78;4144153;28;20205;-48
2022/03/08 00:26:39;;;;;;;11.43;10.63;;;;;;;0.26;48.64;99183.56;4124669;28;20311;-48
2022/03/08 00:28:40;;;;;;;12.17;11.27;;;;;;;0.21;48.91;99183.22;4142893;28;20229;-48
2022/03/08 00:30:42;;;;;;;13.03;12.03;;;;;;;0.20;49.29;99178.84;4136813;28;20265;-49
2022/03/08 00:32:45;;;;;;;11.73;10.93;;;;;;;0.06;49.19;99182.22;4138271;28;20655;-48
2022/03/08 00:34:46;;;;;;;12.20;11.20;;;;;;;0.16;49.10;99190.94;4143496;28;20208;-48
2022/03/08 00:36:48;;;;;;;11.73;10.73;;;;;;;0.06;49.37;99184.03;4144117;28;20212;-48
2022/03/08 00:38:50;;;;;;;13.10;11.97;;;;;;;0.03;49.55;99185.25;4143275;28;20267;-50
2022/03/08 00:40:52;;;;;;;11.77;10.73;;;;;;;0.02;49.77;99191.59;4127954;28;20636;-52
2022/03/08 00:42:53;;;;;;;11.20;10.30;;;;;;;-0.05;49.65;99185.22;4143036;28;20244;-52
2022/03/08 00:44:55;;;;;;;13.33;12.33;;;;;;;-0.03;49.17;99183.22;4137111;28;20241;-48
2022/03/08 00:46:57;;;;;;;12.87;11.67;;;;;;;0.02;49.68;99177.34;4119442;28;20202;-48
2022/03/08 00:48:59;;;;;;;11.63;10.73;;;;;;;-0.08;49.81;99180.19;4138726;28;20221;-49
2022/03/08 00:51:00;;;;;;;14.73;13.53;;;;;;;0.02;49.78;99178.16;4154621;28;20243;-49
2022/03/08 00:53:02;;;;;;;11.23;10.13;;;;;;;0.01;49.78;99179.19;4144824;28;20699;-51
2022/03/08 00:55:06;;;;;;;11.63;10.73;;;;;;;0.03;49.84;99170.94;4143703;28;20323;-48
2022/03/08 00:57:08;;;;;;;13.37;12.27;;;;;;;0.02;49.80;99175.47;4141391;28;20209;-48
2022/03/08 00:59:09;;;;;;;13.50;12.37;;;;;;;-0.01;49.67;99170.44;4139173;28;20264;-49
2022/03/08 01:01:11;;;;;;;12.27;11.27;;;;;;;-0.08;49.96;99173.94;4127795;28;20206;-50
2022/03/08 01:03:13;;;;;;;12.43;11.30;;;;;;;-0.08;49.95;99169.44;4138989;28;20296;-49
2022/03/08 01:05:16;;;;;;;11.40;10.50;;;;;;;-0.13;49.95;99167.41;4132388;28;20308;-50
2022/03/08 01:07:17;;;;;;;11.23;10.33;;;;;;;-0.22;50.46;99168.41;4151273;28;20208;-50
2022/03/08 01:09:19;;;;;;;12.23;11.13;;;;;;;-0.23;50.33;99174.78;4151747;28;20229;-49
2022/03/08 01:11:21;;;;;;;11.83;11.03;;;;;;;-0.22;50.41;99171.09;4139121;28;20549;-49
2022/03/08 01:13:22;;;;;;;13.80;10.20;;;;;;;-0.23;50.26;99164.88;4138349;28;20680;-49
2022/03/08 01:15:25;;;;;;;12.53;11.50;;;;;;;-0.25;50.19;99171.41;4141277;28;20248;-50
2022/03/08 01:17:27;;;;;;;11.50;10.60;;;;;;;-0.30;50.34;99165.69;4153491;28;20707;-48
2022/03/08 01:19:28;;;;;;;12.20;11.30;;;;;;;-0.34;50.38;99164.38;4173117;28;20224;-49
2022/03/08 01:21:30;;;;;;;11.87;10.87;;;;;;;-0.28;50.36;99166.38;4143160;28;20696;-49
2022/03/08 01:23:32;;;;;;;12.27;11.07;;;;;;;-0.25;50.10;99163.34;4137807;28;20217;-48
2022/03/08 01:25:36;;;;;;;11.77;10.77;;;;;;;-0.33;50.54;99161.50;4136889;28;20251;-50
2022/03/08 01:27:39;;;;;;;13.43;12.10;;;;;;;-0.19;50.17;99162.69;4141669;28;20268;-50
2022/03/08 01:29:40;;;;;;;12.77;10.50;;;;;;;-0.27;50.35;99162.69;4137107;28;20262;-48
2022/03/08 01:31:42;;;;;;;12.87;11.83;;;;;;;-0.25;50.48;99155.28;4122152;28;20218;-49
2022/03/08 01:33:44;;;;;;;12.13;10.97;;;;;;;-0.22;50.42;99149.59;4122950;28;20590;-48
2022/03/08 01:35:46;;;;;;;12.10;11.00;;;;;;;-0.18;50.10;99156.31;4119435;28;20242;-49
2022/03/08 01:37:48;;;;;;;11.93;10.93;;;;;;;-0.21;50.49;99146.72;4136429;28;20246;-51
2022/03/08 01:39:49;;;;;;;12.47;11.27;;;;;;;-0.25;50.36;99144.53;4155229;28;20219;-52
2022/03/08 01:41:54;;;;;;;11.73;10.80;;;;;;;-0.29;50.64;99145.91;4148678;28;20263;-50
2022/03/08 01:43:56;;;;;;;12.90;11.90;;;;;;;-0.27;50.53;99147.38;4141430;28;20551;-51
2022/03/08 01:45:57;;;;;;;12.37;11.40;;;;;;;-0.30;50.83;99141.50;4156835;28;20209;-48
2022/03/08 01:48:00;;;;;;;11.50;10.60;;;;;;;-0.33;50.76;99141.84;4142488;28;20232;-48
2022/03/08 01:50:02;;;;;;;11.27;10.30;;;;;;;-0.33;51.00;99147.22;4163578;28;20687;-52
2022/03/08 01:52:05;;;;;;;10.63;9.73;;;;;;;-0.28;50.77;99151.09;4173168;28;20200;-48
2022/03/08 01:54:07;;;;;;;11.50;10.30;;;;;;;-0.40;51.08;99141.66;4139758;28;20210;-48
2022/03/08 01:56:09;;;;;;;13.50;11.30;;;;;;;-0.36;51.05;99142.19;4153582;28;20240;-52
2022/03/08 01:58:10;;;;;;;12.47;11.37;;;;;;;-0.48;51.27;99135.44;4146355;28;20229;-50
2022/03/08 02:00:14;;;;;;;17.03;10.37;;;;;;;-0.42;51.14;99134.78;4125376;28;20292;-48
2022/03/08 02:02:16;;;;;;;11.10;10.20;;;;;;;-0.42;51.29;99126.72;4142417;28;20212;-49
2022/03/08 02:04:18;;;;;;;12.17;11.17;;;;;;;-0.46;51.17;99125.38;4143883;28;20205;-49
2022/03/08 02:06:19;;;;;;;11.33;10.33;;;;;;;-0.42;51.25;99126.72;4141169;28;20204;-48
2022/03/08 02:08:21;;;;;;;11.93;10.83;;;;;;;-0.56;51.51;99113.94;4139541;28;20709;-51
2022/03/08 02:10:23;;;;;;;12.00;10.90;;;;;;;-0.49;51.38;99114.97;4138108;28;20478;-51
2022/03/08 02:12:28;;;;;;;12.47;11.47;;;;;;;-0.52;51.48;99112.59;4173607;28;20700;-48
2022/03/08 02:14:30;;;;;;;12.17;11.03;;;;;;;-0.59;51.53;99107.06;4136941;28;20204;-50
2022/03/08 02:16:32;;;;;;;11.87;10.77;;;;;;;-0.68;51.93;99105.34;4154764;28;20852;-48
2022/03/08 02:18:34;;;;;;;10.43;9.53;;;;;;;-0.66;51.97;99103.34;4157507;28;20223;-49
2022/03/08 02:20:36;;;;;;;12.43;11.47;;;;;;;-0.64;51.62;99098.63;4159919;28;20228;-49
2022/03/08 02:22:40;;;;;;;12.07;11.07;;;;;;;-0.72;52.05;99098.63;4146777;28;20209;-48
2022/03/08 02:24:42;;;;;;;13.20;10.83;;;;;;;-0.62;51.92;99093.09;4137969;28;20209;-49
2022/03/08 02:26:45;;;;;;;11.70;10.73;;;;;;;-0.62;52.13;99091.25;4140553;28;20217;-49
2022/03/08 02:28:46;;;;;;;12.03;11.00;;;;;;;-0.63;52.07;99084.19;4141375;28;20240;-51
2022/03/08 02:30:48;;;;;;;11.63;10.67;;;;;;;-0.74;52.01;99089.06;4128461;28;20225;-49
2022/03/08 02:32:51;;;;;;;18.53;10.43;;;;;;;-0.84;52.49;99082.97;4172827;28;20266;-49
2022/03/08 02:34:52;;;;;;;15.40;10.53;;;;;;;-0.76;52.35;99082.97;4145370;28;20201;-49
2022/03/08 02:36:59;;;;;;;12.37;11.27;;;;;;;-0.72;52.58;99071.78;4144863;28;20217;-49
2022/03/08 02:39:04;;;;;;;12.63;10.20;;;;;;;-0.88;52.86;99073.59;4157170;28;20283;-51
2022/03/08 02:41:09;;;;;;;12.93;11.83;;;;;;;-1.06;53.65;99073.72;4172807;28;20232;-49
2022/03/08 02:43:12;;;;;;;12.23;11.27;;;;;;;-1.04;53.15;99074.38;4156218;28;20220;-48
2022/03/08 02:45:16;;;;;;;10.33;9.43;;;;;;;-0.97;53.04;99072.72;4140443;28;20265;-49
2022/03/08 02:47:17;;;;;;;11.93;11.03;;;;;;;-1.14;53.56;99081.72;4146225;28;20210;-50
2022/03/08 02:49:19;;;;;;;10.70;9.70;;;;;;;-1.19;53.77;99075.16;4146478;28;20225;-48
2022/03/08 02:51:21;;;;;;;12.03;11.13;;;;;;;-1.17;53.56;99071.31;4140478;28;20229;-49
2022/03/08 02:53:23;;;;;;;12.43;11.43;;;;;;;-1.20;54.30;99068.13;4140500;28;20275;-49
2022/03/08 02:55:27;;;;;;;11.43;9.97;;;;;;;-1.17;53.97;99067.78;4146357;28;20288;-49
2022/03/08 02:57:29;;;;;;;12.27;11.27;;;;;;;-1.27;54.22;99069.78;4137570;28;20198;-49
2022/03/08 02:59:30;;;;;;;12.90;11.90;;;;;;;-1.26;54.29;99066.09;4138761;28;20225;-49
2022/03/08 03:01:32;;;;;;;11.23;10.30;;;;;;;-1.27;54.42;99067.91;4169697;28;20247;-50
2022/03/08 03:03:34;;;;;;;12.23;10.30;;;;;;;-1.25;54.42;99065.06;4139121;28;20206;-48
2022/03/08 03:05:36;;;;;;;11.13;10.07;;;;;;;-1.18;54.24;99074.16;4142819;28;20206;-50
2022/03/08 03:07:39;;;;;;;11.10;10.23;;;;;;;-1.32;54.46;99061.38;4157305;28;20259;-52
2022/03/08 03:09:40;;;;;;;12.30;11.20;;;;;;;-1.26;54.00;99068.78;4145373;28;20729;-51
2022/03/08 03:11:42;;;;;;;10.77;9.87;;;;;;;-1.23;54.18;99055.88;4168832;28;20258;-50
2022/03/08 03:13:44;;;;;;;11.93;11.03;;;;;;;-1.22;54.03;99048.66;4137493;28;20221;-49
2022/03/08 03:15:45;;;;;;;11.83;10.83;;;;;;;-1.17;54.30;99051.69;4144065;28;20212;-51
2022/03/08 03:17:48;;;;;;;11.07;10.17;;;;;;;-1.15;53.99;99041.63;4128467;28;20268;-51
2022/03/08 03:19:49;;;;;;;12.73;11.63;;;;;;;-1.12;54.07;99052.03;4139126;28;20679;-49
2022/03/08 03:21:51;;;;;;;11.93;11.03;;;;;;;-1.14;54.26;99040.63;4138849;28;20747;-50
2022/03/08 03:23:53;;;;;;;12.03;11.10;;;;;;;-1.11;53.67;99048.34;4142999;28;20621;-49
2022/03/08 03:25:54;;;;;;;11.33;10.43;;;;;;;-1.15;54.12;99052.38;4138287;28;20210;-50
2022/03/08 03:27:57;;;;;;;11.83;10.83;;;;;;;-1.20;53.57;99046.66;4137387;28;20262;-50
2022/03/08 03:29:58;;;;;;;11.90;10.93;;;;;;;-1.13;54.08;99061.94;4141348;28;20206;-49
2022/03/08 03:32:00;;;;;;;11.73;10.03;;;;;;;-1.11;53.72;99049.19;4140078;28;20209;-50
2022/03/08 03:34:02;;;;;;;11.63;10.73;;;;;;;-1.22;54.13;99056.72;4139912;28;20375;-54
2022/03/08 03:36:04;;;;;;;12.50;11.57;;;;;;;-1.24;54.47;99050.66;4142564;28;20855;-50
2022/03/08 03:38:05;;;;;;;12.67;11.70;;;;;;;-1.22;54.66;99052.16;4144961;28;20281;-50
2022/03/08 03:40:08;;;;;;;11.57;10.57;;;;;;;-1.22;54.40;99045.97;4140026;28;20208;-50
2022/03/08 03:42:10;;;;;;;12.10;11.03;;;;;;;-1.24;54.59;99059.56;4157670;28;20571;-50
2022/03/08 03:44:12;;;;;;;12.87;11.77;;;;;;;-1.23;54.59;99049.63;4128266;28;20690;-49
2022/03/08 03:46:14;;;;;;;12.50;11.43;;;;;;;-1.18;54.27;99044.63;4140779;28;20214;-50
2022/03/08 03:48:16;;;;;;;12.57;10.50;;;;;;;-1.25;54.27;99046.28;4134096;28;20232;-49
2022/03/08 03:50:17;;;;;;;11.10;10.23;;;;;;;-1.24;54.66;99042.59;4138188;28;20213;-50
2022/03/08 03:52:19;;;;;;;12.03;10.90;;;;;;;-1.26;54.29;99045.47;4128356;28;20586;-49
2022/03/08 03:54:21;;;;;;;10.50;9.77;;;;;;;-1.25;54.58;99046.28;4158089;28;20209;-51
2022/03/08 03:56:23;;;;;;;12.03;11.03;;;;;;;-1.24;54.67;99043.44;4144614;28;20198;-50
2022/03/08 03:58:25;;;;;;;11.40;10.60;;;;;;;-1.18;54.47;99047.31;4144300;28;20759;-49
2022/03/08 04:00:27;;;;;;;12.53;11.53;;;;;;;-1.12;54.32;99052.88;4140782;28;20272;-50
2022/03/08 04:02:29;;;;;;;11.70;10.67;;;;;;;-1.11;54.60;99037.59;4135242;28;20261;-49
2022/03/08 04:04:31;;;;;;;12.10;10.90;;;;;;;-1.17;54.40;99038.25;4172705;28;20212;-49
2022/03/08 04:06:33;;;;;;;11.27;10.47;;;;;;;-1.09;54.28;99033.75;4144257;28;20220;-50
2022/03/08 04:08:35;;;;;;;12.07;10.87;;;;;;;-1.10;54.17;99033.91;4143415;28;20233;-50
2022/03/08 04:10:37;;;;;;;12.60;11.60;;;;;;;-1.10;54.04;99033.91;4136984;28;20226;-51
2022/03/08 04:12:39;;;;;;;11.83;10.80;;;;;;;-1.06;54.06;99037.97;4141497;28;20205;-51
2022/03/08 04:14:41;;;;;;;12.03;11.13;;;;;;;-1.14;54.16;99032.56;4137600;28;20205;-50
2022/03/08 04:16:43;;;;;;;11.67;10.77;;;;;;;-1.19;54.25;99041.13;4143153;28;20200;-51
2022/03/08 04:18:44;;;;;;;12.67;11.47;;;;;;;-1.25;54.38;99046.28;4141821;28;20331;-51
2022/03/08 04:20:46;;;;;;;11.47;10.57;;;;;;;-1.20;54.51;99043.97;4144842;28;20250;-50
2022/03/08 04:22:48;;;;;;;12.90;11.80;;;;;;;-1.28;54.39;99043.94;4152544;28;20216;-51
2022/03/08 04:24:50;;;;;;;13.70;10.17;;;;;;;-1.24;54.36;99040.75;4138554;28;20275;-50
2022/03/08 04:26:52;;;;;;;11.90;10.90;;;;;;;-1.25;54.16;99035.56;4138948;28;20201;-51
2022/03/08 04:28:53;;;;;;;14.03;10.33;;;;;;;-1.15;54.16;99036.28;4124049;28;20230;-50
2022/03/08 04:30:55;;;;;;;11.27;10.37;;;;;;;-1.19;54.37;99032.22;4138879;28;20763;-53
2022/03/08 04:32:57;;;;;;;10.60;9.80;;;;;;;-1.16;53.99;99037.25;4154537;28;20219;-49
2022/03/08 04:34:59;;;;;;;10.97;10.03;;;;;;;-1.22;54.47;99036.06;4143999;28;20268;-49
2022/03/08 04:37:01;;;;;;;11.03;10.23;;;;;;;-1.15;53.82;99037.09;4145162;28;20204;-49
2022/03/08 04:39:03;;;;;;;11.93;10.93;;;;;;;-1.12;54.13;99038.59;4169709;28;20722;-50
2022/03/08 04:41:08;;;;;;;12.80;11.73;;;;;;;-1.06;53.93;99035.28;4136915;28;20230;-49
2022/03/08 04:43:09;;;;;;;11.07;10.17;;;;;;;-1.11;54.05;99029.53;4141716;28;20205;-49
2022/03/08 04:45:12;;;;;;;10.47;9.67;;;;;;;-1.13;54.37;99034.25;4174320;28;20223;-51
2022/03/08 04:47:14;;;;;;;11.80;10.87;;;;;;;-1.24;54.40;99047.97;4136141;28;21033;-49
2022/03/08 04:49:16;;;;;;;10.47;9.67;;;;;;;-1.18;54.09;99041.94;4150460;28;20263;-50
2022/03/08 04:51:17;;;;;;;9.80;8.87;;;;;;;-1.18;54.30;99052.69;4139734;28;20585;-50
2022/03/08 04:53:19;;;;;;;11.73;10.83;;;;;;;-1.21;54.30;99053.84;4169475;28;20236;-49
2022/03/08 04:55:21;;;;;;;9.37;8.53;;;;;;;-1.17;54.05;99059.72;4141505;28;20206;-49
2022/03/08 04:57:23;;;;;;;12.90;11.90;;;;;;;-1.06;54.23;99056.75;4122575;28;20213;-50
2022/03/08 04:59:25;;;;;;;11.20;10.27;;;;;;;-1.20;54.30;99054.69;4155790;28;20240;-48
2022/03/08 05:01:26;;;;;;;10.70;9.90;;;;;;;-1.15;53.92;99068.47;4138276;28;20213;-50
2022/03/08 05:03:28;;;;;;;11.90;10.90;;;;;;;-1.31;54.52;99058.53;4143184;28;20297;-49
2022/03/08 05:05:33;;;;;;;10.73;9.83;;;;;;;-1.25;54.53;99063.25;4151073;28;20274;-48
2022/03/08 05:07:36;;;;;;;12.60;11.27;;;;;;;-1.23;54.15;99055.88;4127964;28;20273;-51
2022/03/08 05:09:37;;;;;;;11.03;9.97;;;;;;;-1.23;54.37;99060.38;4142501;28;20275;-51
2022/03/08 05:11:39;;;;;;;11.40;10.40;;;;;;;-1.18;54.48;99058.91;4155131;28;20320;-51
2022/03/08 05:13:41;;;;;;;10.83;10.03;;;;;;;-1.31;54.74;99063.03;4158789;28;20251;-50
2022/03/08 05:15:44;;;;;;;11.10;9.77;;;;;;;-1.23;54.50;99060.38;4158106;28;20636;-49
2022/03/08 05:17:45;;;;;;;10.67;9.70;;;;;;;-1.24;54.60;99064.06;4137455;28;20214;-49
2022/03/08 05:19:47;;;;;;;11.07;10.17;;;;;;;-1.40;54.69;99058.66;4144268;28;20205;-49
2022/03/08 05:21:49;;;;;;;11.83;10.93;;;;;;;-1.37;54.76;99050.28;4144068;28;20685;-50
2022/03/08 05:23:51;;;;;;;11.80;10.70;;;;;;;-1.31;54.68;99057.66;4142924;28;20229;-51
2022/03/08 05:25:52;;;;;;;11.30;10.30;;;;;;;-1.36;54.83;99054.63;4139494;28;20205;-49
2022/03/08 05:27:54;;;;;;;11.63;10.70;;;;;;;-1.30;54.70;99051.28;4144227;28;20881;-49
2022/03/08 05:29:56;;;;;;;12.80;11.50;;;;;;;-1.42;55.13;99055.31;4155669;28;20731;-49
2022/03/08 05:31:57;;;;;;;11.73;10.47;;;;;;;-1.42;54.97;99055.31;4171202;28;20219;-49
2022/03/08 05:34:00;;;;;;;9.60;8.80;;;;;;;-1.32;55.00;99050.63;4158257;28;20213;-49
2022/03/08 05:36:02;;;;;;;11.57;10.67;;;;;;;-1.22;54.44;99052.16;4142533;28;20264;-51
2022/03/08 05:38:05;;;;;;;10.97;10.03;;;;;;;-1.41;54.96;99052.44;4153420;28;20221;-49
2022/03/08 05:40:07;;;;;;;11.10;10.30;;;;;;;-1.40;54.94;99047.91;4128579;28;20701;-51
2022/03/08 05:42:09;;;;;;;12.30;11.17;;;;;;;-1.52;54.97;99044.69;4123296;28;20207;-49
2022/03/08 05:44:11;;;;;;;10.33;9.40;;;;;;;-1.41;55.28;99046.25;4138305;28;20569;-48
2022/03/08 05:46:13;;;;;;;10.53;9.63;;;;;;;-1.31;54.85;99045.09;4138792;28;20755;-48
2022/03/08 05:48:14;;;;;;;10.87;10.07;;;;;;;-1.35;54.78;99041.06;4125517;28;20257;-50
2022/03/08 05:50:20;;;;;;;12.43;11.33;;;;;;;-1.40;54.82;99042.56;4139019;28;20202;-50
2022/03/08 05:52:21;;;;;;;11.67;10.77;;;;;;;-1.32;54.99;99045.25;4141853;28;20217;-51
2022/03/08 05:54:23;;;;;;;11.93;11.03;;;;;;;-1.38;54.80;99035.19;4167629;28;20251;-49
2022/03/08 05:56:25;;;;;;;11.07;10.17;;;;;;;-1.43;54.83;99037.50;4138559;28;20291;-49
2022/03/08 05:58:26;;;;;;;11.00;10.00;;;;;;;-1.43;55.36;99034.81;4171448;28;20303;-50
2022/03/08 06:00:28;;;;;;;11.30;10.50;;;;;;;-1.36;55.07;99033.16;4140006;28;20299;-49
2022/03/08 06:02:30;;;;;;;11.47;10.30;;;;;;;-1.42;55.05;99033.84;4143743;28;20229;-48
2022/03/08 06:04:32;;;;;;;12.33;11.23;;;;;;;-1.37;54.91;99037.72;4143150;28;20285;-49
2022/03/08 06:06:34;;;;;;;10.80;9.83;;;;;;;-1.42;55.21;99039.22;4159360;28;20681;-51
2022/03/08 06:08:39;;;;;;;9.93;9.10;;;;;;;-1.38;54.76;99044.06;4143930;28;20233;-49
2022/03/08 06:10:40;;;;;;;11.63;9.77;;;;;;;-1.42;54.85;99045.41;4150362;28;20221;-48
2022/03/08 06:12:44;;;;;;;10.83;9.90;;;;;;;-1.37;54.72;99042.22;4163466;28;20232;-49
2022/03/08 06:14:45;;;;;;;11.87;10.63;;;;;;;-1.38;55.04;99045.91;4142359;28;20316;-51
2022/03/08 06:16:47;;;;;;;10.67;9.77;;;;;;;-1.33;54.87;99048.94;4141680;28;20201;-50
2022/03/08 06:18:49;;;;;;;10.00;9.20;;;;;;;-1.32;55.11;99050.63;4142647;28;20260;-51
2022/03/08 06:20:51;;;;;;;10.73;9.83;;;;;;;-1.37;54.79;99043.06;4142429;28;20673;-52
2022/03/08 06:22:54;;;;;;;9.47;8.77;;;;;;;-1.30;54.96;99049.47;4138468;28;20693;-49
2022/03/08 06:24:56;;;;;;;11.10;10.00;;;;;;;-1.33;55.08;99049.78;4135506;28;20749;-49
2022/03/08 06:26:58;;;;;;;12.73;9.87;;;;;;;-1.27;54.85;99051.81;4138015;28;20209;-49
2022/03/08 06:29:00;;;;;;;12.03;10.37;;;;;;;-1.29;54.94;99053.00;4138998;28;20226;-51
2022/03/08 06:31:01;;;;;;;10.73;9.93;;;;;;;-1.29;54.89;99047.63;4160665;28;20308;-50
2022/03/08 06:33:04;;;;;;;10.63;9.73;;;;;;;-1.28;54.71;99052.00;4152031;28;20205;-49
2022/03/08 06:35:06;;;;;;;10.27;9.37;;;;;;;-1.30;55.01;99045.94;4160727;28;20305;-53
2022/03/08 06:37:08;;;;;;;10.50;9.73;;;;;;;-1.27;54.98;99046.44;4137714;28;20237;-51
2022/03/08 06:39:10;;;;;;;10.47;9.67;;;;;;;-1.28;55.08;99046.63;4155291;28;20233;-49
2022/03/08 06:41:17;;;;;;;10.37;9.37;;;;;;;-1.24;55.11;99058.69;4143312;28;20201;-51
2022/03/08 06:43:19;;;;;;;9.43;8.73;;;;;;;-1.21;55.25;99063.75;4160534;28;20212;-48
2022/03/08 06:45:20;;;;;;;9.97;9.17;;;;;;;-1.23;55.20;99065.75;4144172;28;20206;-48
2022/03/08 06:47:22;;;;;;;12.20;10.57;;;;;;;-1.23;55.34;99066.59;4145825;28;20197;-49
2022/03/08 06:49:24;;;;;;;11.60;10.60;;;;;;;-1.22;55.21;99064.78;4139551;28;20229;-49
2022/03/08 06:51:26;;;;;;;15.40;9.53;;;;;;;-1.14;55.05;99067.47;4129538;28;22020;-50
2022/03/08 06:53:27;;;;;;;11.40;10.30;;;;;;;-1.07;54.98;99068.50;4143290;28;20553;-52
2022/03/08 06:55:29;;;;;;;11.07;10.07;;;;;;;-0.89;54.92;99067.38;4141897;28;20209;-49
2022/03/08 06:57:31;;;;;;;10.67;9.77;;;;;;;-0.43;53.89;99066.75;4129241;28;20208;-51
2022/03/08 06:59:33;;;;;;;8.93;8.27;;;;;;;-0.12;52.98;99065.88;4172009;28;20248;-49
2022/03/08 07:01:34;;;;;;;9.70;8.73;;;;;;;0.17;51.99;99060.81;4137896;28;20205;-49
2022/03/08 07:03:36;;;;;;;11.53;9.70;;;;;;;0.13;52.13;99064.00;4172942;28;20618;-49
2022/03/08 07:05:38;;;;;;;9.30;8.50;;;;;;;0.10;52.14;99062.50;4137979;28;20252;-49
2022/03/08 07:07:41;;;;;;;9.33;8.63;;;;;;;0.08;52.28;99077.13;4139086;28;20321;-49
2022/03/08 07:09:42;;;;;;;9.93;9.03;;;;;;;0.02;52.09;99067.88;4156578;28;20228;-48
2022/03/08 07:11:44;;;;;;;8.43;7.73;;;;;;;0.20;51.25;99067.72;4139348;28;20732;-49
2022/03/08 07:13:46;;;;;;;8.20;7.57;;;;;;;0.19;51.54;99068.69;4158604;28;20221;-49
2022/03/08 07:15:48;;;;;;;8.17;7.47;;;;;;;0.18;51.24;99078.63;4139813;28;20209;-49
2022/03/08 07:17:53;;;;;;;9.10;8.30;;;;;;;0.18;51.65;99073.25;4153068;28;20290;-49
2022/03/08 07:20:02;;;;;;;8.50;7.80;;;;;;;0.19;51.63;99080.31;4140219;28;20206;-50
2022/03/08 07:22:04;;;;;;;10.63;9.80;;;;;;;0.21;51.49;99088.22;4140970;28;20229;-49
2022/03/08 07:24:06;;;;;;;8.87;7.80;;;;;;;0.31;50.89;99084.31;4130171;28;20296;-48
2022/03/08 07:26:09;;;;;;;8.23;7.53;;;;;;;0.45;50.80;99082.75;4142595;28;20205;-48
2022/03/08 07:28:14;;;;;;;8.57;7.77;;;;;;;0.71;50.40;99077.97;4143211;28;20229;-48
2022/03/08 07:30:33;;;;;;;8.77;7.83;;;;;;;1.37;50.00;99076.44;4137767;28;20219;-49
2022/03/08 07:32:35;;;;;;;8.47;7.47;;;;;;;1.87;48.60;99075.91;4138416;28;20706;-48
2022/03/08 07:34:37;;;;;;;8.97;8.20;;;;;;;2.11;47.36;99072.97;4137658;28;20684;-49
2022/03/08 07:36:39;;;;;;;6.70;6.10;;;;;;;2.35;46.02;99072.72;4137411;28;20652;-49
2022/03/08 07:38:41;;;;;;;7.13;6.63;;;;;;;2.35;46.29;99068.16;4143586;28;20234;-49
2022/03/08 07:40:43;;;;;;;8.77;7.97;;;;;;;2.30;46.69;99067.88;4153645;28;20216;-49
2022/03/08 07:42:44;;;;;;;7.63;7.03;;;;;;;2.55;45.87;99074.69;4138636;28;20202;-50
2022/03/08 07:44:46;;;;;;;10.70;7.43;;;;;;;2.96;45.85;99077.75;4139125;28;20271;-50
2022/03/08 07:46:48;;;;;;;7.93;7.33;;;;;;;3.19;46.17;99073.88;4138510;28;20300;-49
2022/03/08 07:48:50;;;;;;;7.67;7.07;;;;;;;3.03;45.19;99076.81;4143367;28;20232;-49
2022/03/08 07:51:12;;;;;;;6.80;6.30;;;;;;;3.27;44.46;99073.75;4143331;28;20669;-49
2022/03/08 07:53:13;;;;;;;7.70;7.10;;;;;;;3.46;45.10;99078.56;4139680;28;20276;-49
2022/03/08 07:55:15;;;;;;;8.10;7.40;;;;;;;3.09;44.98;99078.78;4154870;28;20240;-49
2022/03/08 07:57:17;;;;;;;7.47;6.80;;;;;;;3.26;45.01;99077.50;4137596;28;20204;-53
2022/03/08 07:59:19;;;;;;;13.13;6.95;;;;;;;3.66;44.42;99084.22;4143525;28;20260;-49
2022/03/08 08:01:20;;;;;;;7.22;5.93;;;;;;;3.43;44.32;99084.38;4141556;28;20284;-49
2022/03/08 08:03:22;;;;;;;7.03;6.43;;;;;;;4.19;44.37;99087.19;4138881;28;20201;-50
2022/03/08 08:05:24;;;;;;;6.68;6.13;;;;;;;4.10;43.66;99085.66;4143083;28;20297;-49
2022/03/08 08:07:26;;;;;;;7.05;6.45;;;;;;;4.05;43.57;99085.41;4156790;28;20805;-49
2022/03/08 08:09:28;;;;;;;7.47;6.07;;;;;;;4.10;43.44;99085.66;4141874;28;20233;-48
2022/03/08 08:11:30;;;;;;;12.38;7.25;;;;;;;3.83;43.49;99097.28;4141839;28;20205;-49
2022/03/08 08:13:35;;;;;;;14.32;6.40;;;;;;;4.31;43.90;99091.03;4129019;28;20597;-49
2022/03/08 08:15:39;;;;;;;7.50;6.90;;;;;;;4.02;43.67;99087.66;4137185;28;20240;-49
2022/03/08 08:17:46;;;;;;;6.25;5.75;;;;;;;4.10;43.96;99091.09;4149317;28;20229;-49
2022/03/08 08:19:48;;;;;;;7.07;6.50;;;;;;;4.76;42.93;99084.25;4153293;28;20206;-50
2022/03/08 08:21:50;;;;;;;5.88;5.38;;;;;;;4.65;42.67;99092.94;4138536;28;20256;-50
2022/03/08 08:23:51;;;;;;;7.40;6.80;;;;;;;4.47;43.56;99093.44;4142430;28;20966;-48
2022/03/08 08:25:53;;;;;;;7.05;6.53;;;;;;;4.37;43.08;99089.41;4143141;28;20232;-50
2022/03/08 08:27:55;;;;;;;6.82;6.32;;;;;;;4.50;42.91;99095.78;4144428;28;20226;-49
2022/03/08 08:29:57;;;;;;;6.63;6.03;;;;;;;4.32;43.01;99087.28;4141078;28;20854;-48
2022/03/08 08:31:59;;;;;;;6.78;6.18;;;;;;;4.36;42.75;99082.31;4142132;28;20217;-48
2022/03/08 08:34:04;;;;;;;6.40;5.90;;;;;;;4.58;42.67;99082.06;4118042;28;20320;-49
2022/03/08 08:36:05;;;;;;;5.38;4.88;;;;;;;4.76;42.85;99078.84;4151837;28;20284;-49
2022/03/08 08:38:07;;;;;;;7.13;6.43;;;;;;;4.76;42.52;99079.69;4139095;28;20225;-50
2022/03/08 08:40:10;;;;;;;11.00;6.78;;;;;;;4.75;42.71;99083.44;4168533;28;20218;-51
2022/03/08 08:42:12;;;;;;;8.20;6.10;;;;;;;4.65;42.28;99076.69;4136372;28;20232;-51
2022/03/08 08:44:19;;;;;;;7.88;7.28;;;;;;;4.67;42.24;99072.75;4151241;28;20267;-50
2022/03/08 08:46:22;;;;;;;7.18;6.68;;;;;;;5.07;42.33;99083.63;4138044;28;20703;-50
2022/03/08 08:48:24;;;;;;;5.85;5.45;;;;;;;5.09;41.73;99083.41;4117663;28;20261;-52
2022/03/08 08:50:26;;;;;;;7.35;6.75;;;;;;;4.94;42.14;99071.03;4135568;28;20213;-49
2022/03/08 08:52:27;;;;;;;6.35;5.85;;;;;;;4.84;42.37;99076.81;4134537;28;20229;-50
2022/03/08 08:54:30;;;;;;;6.45;4.90;;;;;;;4.96;42.18;99080.66;4135895;28;20260;-49
2022/03/08 08:56:35;;;;;;;8.23;6.05;;;;;;;5.11;41.89;99078.63;4124397;28;20213;-49
2022/03/08 08:58:36;;;;;;;6.07;5.57;;;;;;;5.38;41.90;99072.25;4133138;28;20810;-49
2022/03/08 09:00:38;;;;;;;6.72;6.22;;;;;;;5.64;41.41;99080.47;4136181;28;20256;-52
2022/03/08 09:02:43;;;;;;;5.68;5.18;;;;;;;5.23;41.86;99071.59;4136484;28;20209;-48
2022/03/08 09:04:46;;;;;;;6.47;6.00;;;;;;;5.48;42.04;99069.97;4167166;28;20208;-49
2022/03/08 09:06:47;;;;;;;7.22;6.72;;;;;;;5.68;41.46;99073.59;4136324;28;20868;-50
2022/03/08 09:08:49;;;;;;;6.68;6.18;;;;;;;5.72;40.83;99061.28;4134289;28;20232;-49
2022/03/08 09:10:54;;;;;;;7.72;5.60;;;;;;;5.92;41.00;99067.63;4133250;28;20727;-50
2022/03/08 09:12:57;;;;;;;6.88;6.15;;;;;;;6.07;40.67;99058.22;4137561;28;20928;-50
2022/03/08 09:15:00;;;;;;;5.55;5.05;;;;;;;5.60;40.67;99054.78;4136919;28;20324;-51
2022/03/08 09:17:03;;;;;;;5.45;4.93;;;;;;;5.46;40.62;99055.78;4151743;28;20595;-49
2022/03/08 09:19:05;;;;;;;6.57;5.97;;;;;;;5.71;41.27;99054.19;4133926;28;20236;-50
2022/03/08 09:21:07;;;;;;;7.65;7.10;;;;;;;5.63;40.60;99062.53;4136917;28;20237;-48
2022/03/08 09:23:09;;;;;;;6.32;5.88;;;;;;;6.09;40.83;99049.88;4135369;28;20205;-49
2022/03/08 09:25:14;;;;;;;6.65;6.07;;;;;;;6.33;40.30;99055.50;4135031;28;20213;-49
2022/03/08 09:27:16;;;;;;;6.43;5.95;;;;;;;6.64;40.04;99054.84;4133406;28;20619;-49